createdAt,value
2017-12-01T00:02:25.584Z,25.40
2017-12-01T00:04:53.118Z,31.12
2017-12-01T00:07:21.430Z,25.98
2017-12-01T00:09:48.951Z,30.35
2017-12-01T00:12:17.259Z,28.08
2017-12-01T00:14:44.783Z,29.42
2017-12-01T00:17:13.087Z,25.85
2017-12-01T00:19:40.611Z,24.83
2017-12-01T00:22:08.147Z,26.20
2017-12-01T00:24:35.674Z,28.17
2017-12-01T00:27:03.220Z,24.80
2017-12-01T00:29:30.746Z,28.50
2017-12-01T00:31:58.296Z,22.23
2017-12-01T00:34:25.819Z,26.50
2017-12-01T00:36:53.358Z,23.27
2017-12-01T00:39:20.880Z,20.35
2017-12-01T00:41:48.422Z,22.67
2017-12-01T00:44:15.937Z,24.58
2017-12-01T00:46:43.478Z,34.53
2017-12-01T00:49:11.766Z,28.35
2017-12-01T00:51:40.071Z,26.08
2017-12-01T00:54:07.599Z,23.25
2017-12-01T00:56:35.912Z,21.52
2017-12-01T00:59:03.444Z,25.23
2017-12-01T01:01:31.747Z,25.50
2017-12-01T01:03:59.271Z,25.80
2017-12-01T01:06:27.577Z,22.80
2017-12-01T01:08:55.103Z,25.98
2017-12-01T01:11:22.638Z,21.12
2017-12-01T01:13:50.162Z,26.92
2017-12-01T01:16:17.714Z,23.25
2017-12-01T01:18:45.237Z,27.20
2017-12-01T01:21:12.841Z,25.12
2017-12-01T01:23:40.373Z,22.30
2017-12-01T01:26:08.670Z,19.55
2017-12-01T01:28:36.218Z,21.90
2017-12-01T01:31:03.737Z,23.38
2017-12-01T01:33:31.286Z,23.58
2017-12-01T01:35:58.818Z,20.62
2017-12-01T01:38:26.358Z,20.75
2017-12-01T01:40:54.649Z,23.98
2017-12-01T01:43:22.198Z,22.08
2017-12-01T01:45:50.487Z,19.98
2017-12-01T01:48:18.030Z,19.08
2017-12-01T01:50:46.320Z,23.05
2017-12-01T01:53:14.627Z,17.80
2017-12-01T01:55:42.142Z,18.80
2017-12-01T01:58:09.706Z,18.80
2017-12-01T02:00:37.221Z,17.30
2017-12-01T02:03:04.746Z,18.62
2017-12-01T02:05:32.287Z,14.65
2017-12-01T02:08:00.574Z,16.67
2017-12-01T02:10:28.886Z,16.33
2017-12-01T02:12:56.402Z,15.02
2017-12-01T02:15:24.714Z,12.65
2017-12-01T02:17:52.237Z,12.80
2017-12-01T02:20:20.551Z,16.35
2017-12-01T02:22:48.070Z,13.07
2017-12-01T02:25:15.614Z,14.13
2017-12-01T02:27:43.140Z,14.68
2017-12-01T02:30:10.669Z,16.05
2017-12-01T02:32:44.567Z,13.43
2017-12-01T02:35:12.859Z,13.02
2017-12-01T02:37:41.164Z,14.82
2017-12-01T02:40:08.695Z,14.75
2017-12-01T02:42:36.246Z,11.60
2017-12-01T02:45:04.526Z,11.80
2017-12-01T02:47:32.837Z,11.63
2017-12-01T02:50:00.358Z,14.15
2017-12-01T02:52:28.675Z,13.95
2017-12-01T02:54:56.197Z,12.18
2017-12-01T02:57:24.509Z,11.38
2017-12-01T02:59:52.030Z,9.55
2017-12-01T03:02:19.567Z,10.80
2017-12-01T03:04:47.087Z,9.63
2017-12-01T03:07:14.626Z,13.15
2017-12-01T03:09:42.910Z,12.73
2017-12-01T03:12:11.230Z,11.18
2017-12-01T03:14:38.778Z,9.95
2017-12-01T03:17:06.322Z,12.90
2017-12-01T03:19:33.842Z,10.77
2017-12-01T03:22:01.382Z,11.88
2017-12-01T03:24:28.902Z,13.35
2017-12-01T03:26:56.452Z,12.95
2017-12-01T03:29:23.981Z,11.48
2017-12-01T03:31:51.522Z,14.38
2017-12-01T03:34:19.052Z,12.23
2017-12-01T03:36:46.594Z,14.80
2017-12-01T03:39:14.116Z,12.43
2017-12-01T03:41:41.666Z,14.27
2017-12-01T03:44:09.191Z,16.77
2017-12-01T03:46:36.729Z,12.40
2017-12-01T03:49:05.019Z,11.30
2017-12-01T03:51:32.551Z,14.68
2017-12-01T03:54:00.092Z,11.63
2017-12-01T03:56:27.615Z,11.68
2017-12-01T03:58:55.155Z,11.88
2017-12-01T04:01:23.443Z,9.73
2017-12-01T04:03:50.990Z,10.73
2017-12-01T04:06:19.280Z,11.18
2017-12-01T04:08:46.819Z,11.95
2017-12-01T04:11:15.105Z,11.23
2017-12-01T04:13:43.407Z,9.52
2017-12-01T04:16:10.951Z,9.38
2017-12-01T04:18:38.500Z,9.32
2017-12-01T04:21:06.794Z,10.32
2017-12-01T04:23:34.329Z,10.07
2017-12-01T04:26:01.847Z,11.23
2017-12-01T04:28:29.395Z,12.48
2017-12-01T04:30:56.919Z,9.98
2017-12-01T04:33:25.222Z,11.20
2017-12-01T04:35:52.747Z,9.40
2017-12-01T04:38:20.288Z,8.95
2017-12-01T04:40:47.803Z,8.98
2017-12-01T04:43:15.364Z,9.15
2017-12-01T04:45:42.883Z,8.65
2017-12-01T04:48:10.406Z,8.80
2017-12-01T04:50:37.948Z,10.73
2017-12-01T04:53:05.470Z,14.73
2017-12-01T04:55:33.003Z,8.15
2017-12-01T04:58:00.531Z,9.65
2017-12-01T05:00:28.060Z,9.80
2017-12-01T05:02:55.587Z,12.65
2017-12-01T05:05:23.126Z,11.25
2017-12-01T05:07:50.652Z,14.20
2017-12-01T05:10:18.955Z,14.82
2017-12-01T05:12:46.480Z,14.63
2017-12-01T05:15:14.039Z,20.23
2017-12-01T05:17:41.566Z,16.60
2017-12-01T05:20:09.086Z,25.42
2017-12-01T05:22:37.434Z,15.38
2017-12-01T05:25:04.960Z,11.90
2017-12-01T05:27:32.540Z,12.60
2017-12-01T05:30:00.071Z,14.65
2017-12-01T05:32:27.618Z,12.18
2017-12-01T05:34:55.144Z,15.82
2017-12-01T05:37:22.678Z,13.00
2017-12-01T05:39:50.203Z,14.38
2017-12-01T05:42:17.754Z,16.15
2017-12-01T05:44:45.279Z,16.15
2017-12-01T05:47:12.830Z,18.35
2017-12-01T05:49:40.355Z,16.58
2017-12-01T05:52:07.894Z,15.57
2017-12-01T05:54:35.420Z,18.25
2017-12-01T05:57:02.963Z,14.52
2017-12-01T05:59:30.493Z,16.95
2017-12-01T06:01:58.059Z,14.68
2017-12-01T06:04:25.583Z,11.50
2017-12-01T06:06:53.877Z,14.52
2017-12-01T06:09:21.422Z,14.77
2017-12-01T06:11:49.712Z,14.43
2017-12-01T06:14:17.251Z,13.27
2017-12-01T06:16:44.771Z,12.80
2017-12-01T06:19:12.311Z,12.00
2017-12-01T06:21:39.833Z,12.80
2017-12-01T06:24:07.363Z,19.85
2017-12-01T06:26:34.906Z,20.55
2017-12-01T06:29:02.435Z,17.70
2017-12-01T06:31:29.982Z,14.07
2017-12-01T06:33:58.271Z,23.67
2017-12-01T06:36:25.815Z,17.20
2017-12-01T06:38:54.113Z,20.05
2017-12-01T06:41:21.674Z,16.33
2017-12-01T06:43:49.204Z,21.48
2017-12-01T06:46:16.735Z,27.27
2017-12-01T06:48:44.285Z,26.33
2017-12-01T06:51:11.823Z,24.52
2017-12-01T06:53:39.370Z,17.02
2017-12-01T06:56:06.899Z,18.50
2017-12-01T06:58:34.445Z,16.90
2017-12-01T07:01:01.978Z,16.92
2017-12-01T07:03:29.526Z,18.85
2017-12-01T07:05:57.055Z,66.47
2017-12-01T07:08:25.374Z,29.37
2017-12-01T07:10:52.902Z,42.53
2017-12-01T07:13:21.216Z,26.80
2017-12-01T07:15:48.740Z,29.35
2017-12-01T07:18:17.059Z,23.55
2017-12-01T07:20:44.582Z,24.85
2017-12-01T07:23:12.895Z,22.95
2017-12-01T07:25:40.429Z,31.15
2017-12-01T07:28:08.743Z,38.17
2017-12-01T07:30:36.266Z,31.33
2017-12-01T07:33:04.575Z,28.30
2017-12-01T07:35:32.094Z,29.15
2017-12-01T07:37:59.642Z,32.92
2017-12-01T07:40:27.165Z,32.85
2017-12-01T07:42:54.714Z,25.92
2017-12-01T07:45:26.083Z,32.08
2017-12-01T07:47:53.608Z,28.80
2017-12-01T07:50:21.920Z,25.75
2017-12-01T07:52:49.444Z,26.17
2017-12-01T07:55:17.755Z,19.83
2017-12-01T07:57:45.283Z,27.75
2017-12-01T08:00:13.585Z,32.67
2017-12-01T08:02:41.106Z,23.30
2017-12-01T08:05:09.419Z,31.90
2017-12-01T08:07:38.526Z,29.52
2017-12-01T08:10:06.083Z,22.58
2017-12-01T08:12:33.597Z,24.55
2017-12-01T08:15:01.122Z,24.08
2017-12-01T08:17:29.527Z,25.00
2017-12-01T08:19:57.052Z,22.70
2017-12-01T08:22:36.545Z,24.05
2017-12-01T08:25:15.868Z,27.55
2017-12-01T08:27:43.413Z,21.17
2017-12-01T08:30:11.706Z,23.08
2017-12-01T08:32:39.252Z,21.42
2017-12-01T08:35:06.782Z,23.23
2017-12-01T08:37:34.326Z,24.85
2017-12-01T08:40:02.641Z,25.02
2017-12-01T08:42:30.175Z,23.12
2017-12-01T08:44:57.718Z,20.20
2017-12-01T08:47:26.010Z,26.90
2017-12-01T08:49:54.326Z,17.02
2017-12-01T08:52:21.914Z,16.98
2017-12-01T08:54:49.457Z,65.47
2017-12-01T08:57:16.974Z,20.98
2017-12-01T08:59:45.294Z,16.20
2017-12-01T09:02:12.820Z,11.68
2017-12-01T09:04:40.344Z,12.77
2017-12-01T09:07:07.890Z,15.32
2017-12-01T09:09:35.410Z,12.35
2017-12-01T09:12:02.954Z,15.57
2017-12-01T09:14:31.243Z,15.93
2017-12-01T09:16:58.799Z,15.02
2017-12-01T09:19:27.089Z,13.20
2017-12-01T09:21:54.629Z,10.80
2017-12-01T09:24:22.919Z,19.62
2017-12-01T09:26:50.458Z,9.25
2017-12-01T09:29:17.983Z,13.30
2017-12-01T09:31:45.503Z,9.07
2017-12-01T09:34:13.044Z,14.98
2017-12-01T09:36:41.331Z,9.82
2017-12-01T09:39:09.634Z,8.00
2017-12-01T09:41:37.146Z,9.13
2017-12-01T09:44:04.711Z,9.18
2017-12-01T09:46:32.228Z,9.35
2017-12-01T09:48:59.794Z,9.63
2017-12-01T09:51:27.312Z,12.80
2017-12-01T09:53:55.620Z,8.43
2017-12-01T09:56:23.134Z,8.85
2017-12-01T09:58:50.672Z,11.88
2017-12-01T10:01:18.191Z,12.10
2017-12-01T10:03:45.734Z,12.00
2017-12-01T10:06:14.022Z,8.63
2017-12-01T10:08:41.583Z,12.20
2017-12-01T10:11:09.100Z,11.00
2017-12-01T10:13:36.622Z,11.52
2017-12-01T10:16:04.161Z,11.68
2017-12-01T10:18:31.678Z,7.45
2017-12-01T10:20:59.223Z,12.00
2017-12-01T10:23:26.747Z,8.30
2017-12-01T10:25:54.286Z,10.77
2017-12-01T10:28:22.567Z,9.60
2017-12-01T10:30:50.870Z,7.60
2017-12-01T10:33:18.390Z,13.62
2017-12-01T10:35:45.939Z,14.38
2017-12-01T10:38:13.458Z,9.80
2017-12-01T10:40:41.018Z,11.60
2017-12-01T10:43:08.544Z,11.43
2017-12-01T10:45:36.836Z,10.07
2017-12-01T10:48:05.148Z,13.62
2017-12-01T10:50:32.671Z,10.38
2017-12-01T10:53:00.978Z,13.50
2017-12-01T10:55:28.505Z,11.60
2017-12-01T10:57:56.822Z,12.30
2017-12-01T11:00:24.346Z,12.25
2017-12-01T11:02:52.650Z,9.25
2017-12-01T11:05:20.175Z,10.90
2017-12-01T11:07:47.714Z,14.05
2017-12-01T11:10:15.241Z,15.23
2017-12-01T11:12:42.804Z,12.40
2017-12-01T11:15:10.326Z,10.15
2017-12-01T11:17:38.608Z,13.40
2017-12-01T11:20:06.916Z,13.62
2017-12-01T11:22:34.443Z,11.57
2017-12-01T11:25:02.748Z,12.63
2017-12-01T11:27:30.270Z,10.68
2017-12-01T11:29:57.811Z,14.95
2017-12-01T11:32:25.323Z,13.95
2017-12-01T11:34:52.887Z,14.18
2017-12-01T11:37:20.412Z,12.77
2017-12-01T11:39:47.943Z,8.98
2017-12-01T11:42:15.467Z,11.32
2017-12-01T11:44:43.004Z,9.30
2017-12-01T11:47:11.298Z,10.98
2017-12-01T11:49:38.886Z,12.15
2017-12-01T11:52:06.402Z,9.13
2017-12-01T11:54:34.715Z,13.00
2017-12-01T11:57:02.269Z,15.02
2017-12-01T11:59:29.822Z,11.40
2017-12-01T12:01:58.102Z,13.45
2017-12-01T12:04:26.403Z,10.35
2017-12-01T12:06:53.918Z,11.02
2017-12-01T12:09:21.459Z,10.85
2017-12-01T12:11:48.981Z,12.88
2017-12-01T12:14:16.523Z,13.13
2017-12-01T12:16:44.055Z,10.98
2017-12-01T12:19:11.615Z,9.55
2017-12-01T12:21:39.139Z,9.10
2017-12-01T12:24:07.474Z,9.45
2017-12-01T12:26:35.781Z,11.50
2017-12-01T12:29:03.300Z,7.70
2017-12-01T12:31:31.610Z,10.38
2017-12-01T12:33:59.138Z,7.68
2017-12-01T12:36:27.458Z,11.38
2017-12-01T12:38:54.975Z,8.32
2017-12-01T12:41:23.282Z,7.60
2017-12-01T12:43:50.811Z,8.88
2017-12-01T12:46:18.350Z,10.95
2017-12-01T12:48:45.875Z,9.10
2017-12-01T12:51:13.434Z,7.95
2017-12-01T12:53:40.958Z,9.32
2017-12-01T12:56:08.478Z,8.88
2017-12-01T12:58:36.014Z,9.90
2017-12-01T13:01:03.542Z,8.68
2017-12-01T13:03:31.079Z,8.18
2017-12-01T13:05:59.374Z,9.93
2017-12-01T13:08:26.913Z,10.55
2017-12-01T13:10:54.429Z,9.07
2017-12-01T13:13:22.743Z,10.50
2017-12-01T13:15:50.269Z,8.68
2017-12-01T13:18:18.596Z,11.50
2017-12-01T13:20:46.114Z,9.15
2017-12-01T13:23:13.639Z,8.00
2017-12-01T13:25:41.174Z,11.57
2017-12-01T13:28:08.694Z,8.80
2017-12-01T13:30:36.234Z,9.02
2017-12-01T13:33:04.516Z,7.78
2017-12-01T13:35:32.827Z,10.80
2017-12-01T13:38:00.348Z,8.50
2017-12-01T13:40:28.654Z,9.20
2017-12-01T13:42:56.170Z,10.77
2017-12-01T13:45:23.706Z,9.05
2017-12-01T13:47:51.236Z,8.85
2017-12-01T13:50:19.619Z,9.05
2017-12-01T13:52:47.137Z,9.50
2017-12-01T13:55:14.669Z,7.62
2017-12-01T13:57:42.185Z,10.30
2017-12-01T14:00:10.493Z,9.10
2017-12-01T14:02:38.019Z,8.57
2017-12-01T14:05:06.307Z,5.93
2017-12-01T14:07:34.620Z,10.52
2017-12-01T14:10:02.135Z,8.02
2017-12-01T14:12:30.450Z,7.35
2017-12-01T14:14:57.966Z,7.07
2017-12-01T14:17:26.283Z,5.10
2017-12-01T14:19:53.802Z,6.95
2017-12-01T14:22:21.342Z,7.60
2017-12-01T14:24:49.642Z,9.07
2017-12-01T14:27:17.182Z,8.68
2017-12-01T14:29:44.703Z,9.43
2017-12-01T14:32:12.249Z,9.43
2017-12-01T14:34:40.538Z,11.02
2017-12-01T14:37:08.061Z,12.95
2017-12-01T14:39:35.607Z,17.80
2017-12-01T14:42:03.125Z,19.45
2017-12-01T14:44:30.677Z,14.07
2017-12-01T14:46:58.261Z,10.70
2017-12-01T14:49:26.540Z,9.50
2017-12-01T14:51:54.058Z,8.65
2017-12-01T14:54:22.382Z,14.10
2017-12-01T14:56:49.913Z,14.38
2017-12-01T14:59:18.223Z,17.90
2017-12-01T15:01:45.738Z,12.65
2017-12-01T15:04:13.263Z,16.83
2017-12-01T15:06:40.807Z,15.50
2017-12-01T15:09:08.334Z,15.65
2017-12-01T15:11:36.639Z,17.05
2017-12-01T15:14:04.162Z,12.52
2017-12-01T15:16:31.749Z,8.93
2017-12-01T15:19:00.035Z,11.02
2017-12-01T15:21:27.579Z,10.25
2017-12-01T15:23:55.921Z,11.07
2017-12-01T15:26:24.254Z,11.30
2017-12-01T15:28:51.775Z,11.43
2017-12-01T15:31:19.301Z,8.88
2017-12-01T15:33:46.814Z,9.32
2017-12-01T15:36:15.123Z,10.50
2017-12-01T15:38:42.638Z,8.40
2017-12-01T15:41:10.179Z,10.10
2017-12-01T15:43:37.693Z,8.75
2017-12-01T15:46:05.235Z,8.05
2017-12-01T15:48:33.517Z,10.18
2017-12-01T15:51:01.827Z,9.27
2017-12-01T15:53:29.350Z,13.88
2017-12-01T15:55:57.649Z,13.68
2017-12-01T15:58:25.174Z,11.32
2017-12-01T16:00:52.710Z,8.27
2017-12-01T16:03:20.230Z,14.77
2017-12-01T16:05:47.782Z,13.55
2017-12-01T16:08:16.061Z,15.25
2017-12-01T16:10:44.372Z,12.73
2017-12-01T16:13:11.889Z,11.80
2017-12-01T16:15:40.222Z,15.13
2017-12-01T16:18:07.742Z,13.05
2017-12-01T16:20:36.050Z,16.52
2017-12-01T16:23:03.582Z,15.20
2017-12-01T16:25:31.889Z,11.18
2017-12-01T16:27:59.414Z,12.90
2017-12-01T16:30:27.715Z,10.07
2017-12-01T16:33:00.226Z,18.67
2017-12-01T16:35:23.566Z,11.93
2017-12-01T16:37:51.085Z,13.90
2017-12-01T16:40:18.625Z,12.02
2017-12-01T16:42:46.142Z,10.65
2017-12-01T16:45:13.686Z,9.70
2017-12-01T16:47:41.971Z,15.35
2017-12-01T16:50:10.283Z,16.30
2017-12-01T16:52:38.073Z,14.20
2017-12-01T16:55:05.619Z,13.90
2017-12-01T16:57:33.142Z,17.35
2017-12-01T17:00:01.463Z,15.65
2017-12-01T17:02:29.014Z,17.80
2017-12-01T17:04:56.743Z,15.93
2017-12-01T17:07:25.050Z,16.90
2017-12-01T17:09:52.579Z,16.77
2017-12-01T17:12:20.130Z,15.13
2017-12-01T17:14:48.421Z,16.52
2017-12-01T17:17:16.732Z,13.13
2017-12-01T17:19:44.259Z,12.93
2017-12-01T17:22:12.568Z,13.25
2017-12-01T17:24:40.099Z,14.65
2017-12-01T17:27:07.643Z,20.65
2017-12-01T17:29:35.933Z,19.20
2017-12-01T17:32:04.243Z,18.85
2017-12-01T17:34:31.766Z,17.05
2017-12-01T17:37:00.071Z,17.33
2017-12-01T17:39:27.599Z,16.20
2017-12-01T17:41:55.918Z,20.23
2017-12-01T17:44:23.447Z,14.07
2017-12-01T17:46:51.746Z,17.55
2017-12-01T17:49:19.271Z,11.12
2017-12-01T17:51:47.597Z,15.63
2017-12-01T17:54:15.120Z,19.65
2017-12-01T17:56:43.410Z,23.15
2017-12-01T17:59:10.959Z,18.42
2017-12-01T18:01:39.275Z,23.42
2017-12-01T18:06:56.698Z,17.25
2017-12-01T18:09:24.570Z,17.40
2017-12-01T18:11:52.344Z,18.55
2017-12-01T18:14:20.059Z,19.00
2017-12-01T18:19:47.648Z,16.20
2017-12-01T18:25:37.619Z,14.63
2017-12-01T18:28:05.319Z,20.30
2017-12-01T18:30:33.066Z,18.75
2017-12-01T18:33:00.590Z,20.95
2017-12-01T18:35:28.134Z,19.90
2017-12-01T18:37:55.666Z,17.75
2017-12-01T18:40:23.982Z,18.25
2017-12-01T18:42:51.502Z,17.50
2017-12-01T18:45:19.051Z,15.52
2017-12-01T18:47:46.606Z,20.35
2017-12-01T18:50:14.126Z,21.52
2017-12-01T18:52:41.674Z,19.25
2017-12-01T18:55:09.203Z,22.20
2017-12-01T18:57:36.751Z,24.25
2017-12-01T19:00:04.275Z,30.20
2017-12-01T19:02:31.824Z,21.62
2017-12-01T19:04:59.351Z,19.77
2017-12-01T19:07:26.894Z,26.85
2017-12-01T19:09:54.422Z,27.33
2017-12-01T19:12:21.970Z,33.15
2017-12-01T19:14:49.498Z,28.30
2017-12-01T19:17:17.046Z,27.05
2017-12-01T19:19:44.584Z,24.83
2017-12-01T19:22:12.134Z,21.10
2017-12-01T19:24:39.658Z,22.80
2017-12-01T19:27:07.973Z,26.92
2017-12-01T19:29:35.498Z,22.37
2017-12-01T19:32:03.867Z,22.00
2017-12-01T19:34:31.396Z,24.63
2017-12-01T19:36:58.939Z,26.98
2017-12-01T19:39:26.470Z,23.87
2017-12-01T19:41:54.777Z,30.40
2017-12-01T19:44:22.352Z,28.55
2017-12-01T19:46:49.901Z,26.20
2017-12-01T19:49:17.435Z,27.80
2017-12-01T19:51:45.746Z,28.33
2017-12-01T19:54:13.274Z,29.40
2017-12-01T19:56:41.570Z,31.90
2017-12-01T19:59:09.115Z,26.40
2017-12-01T20:01:37.408Z,31.60
2017-12-01T20:04:04.954Z,23.05
2017-12-01T20:06:33.248Z,33.15
2017-12-01T20:09:00.793Z,23.12
2017-12-01T20:11:29.087Z,29.30
2017-12-01T20:13:56.642Z,31.58
2017-12-01T20:16:24.166Z,30.50
2017-12-01T20:18:51.712Z,32.20
2017-12-01T20:21:19.235Z,31.62
2017-12-01T20:23:46.773Z,28.62
2017-12-01T20:26:15.079Z,28.83
2017-12-01T20:28:42.668Z,23.40
2017-12-01T20:31:10.238Z,23.75
2017-12-01T20:33:37.782Z,28.50
2017-12-01T20:36:05.306Z,25.80
2017-12-01T20:38:32.846Z,20.83
2017-12-01T20:41:00.389Z,18.60
2017-12-01T20:43:27.914Z,25.35
2017-12-01T20:45:55.458Z,29.08
2017-12-01T20:48:22.981Z,64.60
2017-12-01T20:50:50.521Z,66.15
2017-12-01T20:53:18.045Z,56.90
2017-12-01T20:55:45.595Z,44.55
2017-12-01T20:58:13.123Z,42.70
2017-12-01T21:00:40.713Z,45.58
2017-12-01T21:03:09.039Z,36.65
2017-12-01T21:05:36.589Z,33.97
2017-12-01T21:08:04.160Z,29.98
2017-12-01T21:10:31.702Z,29.65
2017-12-01T21:12:59.226Z,23.00
2017-12-01T21:15:27.544Z,21.95
2017-12-01T21:17:55.066Z,23.08
2017-12-01T21:20:23.377Z,24.90
2017-12-01T21:22:50.906Z,24.95
2017-12-01T21:25:19.235Z,18.08
2017-12-01T21:27:46.763Z,31.75
2017-12-01T21:30:14.287Z,28.25
2017-12-01T21:32:41.855Z,35.92
2017-12-01T21:35:09.378Z,32.45
2017-12-01T21:37:36.922Z,30.65
2017-12-01T21:40:04.447Z,27.15
2017-12-01T21:42:32.763Z,26.33
2017-12-01T21:45:00.327Z,28.70
2017-12-01T21:47:27.875Z,25.30
2017-12-01T21:49:55.405Z,20.48
2017-12-01T21:52:23.714Z,22.23
2017-12-01T21:54:51.241Z,21.40
2017-12-01T21:57:19.551Z,35.05
2017-12-01T21:59:47.080Z,30.15
2017-12-01T22:02:15.415Z,31.67
2017-12-01T22:04:42.939Z,27.87
2017-12-01T22:07:10.465Z,32.42
2017-12-01T22:09:38.086Z,32.22
2017-12-01T22:12:05.611Z,34.83
2017-12-01T22:14:33.923Z,28.15
2017-12-01T22:17:01.446Z,31.42
2017-12-01T22:19:29.758Z,25.73
2017-12-01T22:21:57.282Z,24.63
2017-12-01T22:24:25.594Z,29.05
2017-12-01T22:26:53.123Z,29.33
2017-12-01T22:29:21.425Z,30.37
2017-12-01T22:31:48.951Z,28.12
2017-12-01T22:34:16.490Z,30.77
2017-12-01T22:36:44.068Z,25.85
2017-12-01T22:39:11.598Z,26.98
2017-12-01T22:41:39.124Z,26.10
2017-12-01T22:44:07.553Z,19.70
2017-12-01T22:46:35.099Z,19.40
2017-12-01T22:49:02.632Z,31.33
2017-12-01T22:51:30.185Z,23.42
2017-12-01T22:53:58.475Z,19.50
2017-12-01T22:56:26.018Z,22.90
2017-12-01T22:58:54.305Z,24.40
2017-12-01T23:01:22.615Z,25.27
2017-12-01T23:03:50.137Z,28.23
2017-12-01T23:06:18.444Z,24.95
2017-12-01T23:08:45.970Z,23.38
2017-12-01T23:11:14.281Z,22.42
2017-12-01T23:13:41.806Z,28.55
2017-12-01T23:16:10.119Z,25.35
2017-12-01T23:18:37.642Z,29.27
2017-12-01T23:21:05.187Z,24.80
2017-12-01T23:23:32.715Z,33.42
2017-12-01T23:26:00.268Z,25.65
2017-12-01T23:28:27.810Z,32.97
2017-12-01T23:30:55.354Z,33.25
2017-12-01T23:33:23.643Z,25.27
2017-12-01T23:35:51.174Z,31.77
2017-12-01T23:38:18.720Z,28.95
2017-12-01T23:40:46.241Z,27.77
2017-12-01T23:43:13.786Z,25.83
2017-12-01T23:45:42.073Z,33.13
2017-12-01T23:48:09.619Z,26.02
2017-12-01T23:50:37.907Z,28.40
2017-12-01T23:53:06.216Z,19.70
2017-12-01T23:55:33.738Z,19.42
2017-12-01T23:58:02.054Z,19.05
